createdAt,value
2018-06-01T00:01:46.051Z,19.13
2018-06-01T00:04:14.455Z,19.11
2018-06-01T00:06:42.835Z,19.14
2018-06-01T00:09:18.099Z,19.22
2018-06-01T00:11:46.491Z,19.34
2018-06-01T00:14:14.891Z,19.55
2018-06-01T00:16:43.263Z,19.55
2018-06-01T00:19:11.667Z,19.38
2018-06-01T00:21:40.048Z,19.28
2018-06-01T00:24:08.451Z,19.36
2018-06-01T00:26:36.862Z,19.41
2018-06-01T00:29:05.264Z,19.39
2018-06-01T00:31:33.652Z,19.49
2018-06-01T00:34:02.050Z,19.58
2018-06-01T00:36:30.444Z,19.64
2018-06-01T00:38:58.841Z,19.75
2018-06-01T00:41:27.231Z,19.60
2018-06-01T00:43:55.636Z,19.46
2018-06-01T00:46:24.015Z,19.51
2018-06-01T00:48:52.419Z,19.45
2018-06-01T00:51:21.421Z,19.44
2018-06-01T00:53:50.093Z,19.51
2018-06-01T00:56:18.483Z,19.60
2018-06-01T00:58:47.107Z,19.76
2018-06-01T01:01:15.487Z,19.75
2018-06-01T01:03:44.275Z,19.79
2018-06-01T01:06:12.864Z,19.68
2018-06-01T01:08:41.904Z,19.62
2018-06-01T01:11:10.706Z,19.66
2018-06-01T01:13:39.571Z,19.88
2018-06-01T01:16:08.292Z,19.88
2018-06-01T01:18:37.072Z,19.92
2018-06-01T01:21:05.483Z,20.01
2018-06-01T01:23:34.507Z,19.96
2018-06-01T01:26:03.470Z,19.79
2018-06-01T01:28:32.124Z,19.31
2018-06-01T01:31:00.532Z,18.75
2018-06-01T01:33:29.135Z,17.73
2018-06-01T01:35:58.404Z,17.65
2018-06-01T01:38:27.148Z,17.48
2018-06-01T01:41:02.409Z,17.53
2018-06-01T01:43:31.816Z,17.49
2018-06-01T01:46:00.199Z,17.54
2018-06-01T01:48:28.856Z,17.51
2018-06-01T01:50:58.548Z,17.44
2018-06-01T01:53:27.164Z,17.34
2018-06-01T01:55:55.693Z,17.45
2018-06-01T01:58:24.863Z,17.30
2018-06-01T02:00:53.256Z,17.17
2018-06-01T02:03:21.645Z,17.03
2018-06-01T02:05:50.048Z,17.00
2018-06-01T02:08:18.592Z,16.92
2018-06-01T02:10:46.993Z,16.82
2018-06-01T02:13:15.552Z,16.93
2018-06-01T02:15:44.044Z,16.88
2018-06-01T02:18:12.515Z,16.87
2018-06-01T02:20:41.012Z,16.91
2018-06-01T02:23:09.404Z,16.85
2018-06-01T02:25:37.811Z,16.74
2018-06-01T02:28:06.621Z,16.75
2018-06-01T02:30:35.016Z,16.66
2018-06-01T02:33:03.396Z,16.68
2018-06-01T02:35:31.788Z,16.75
2018-06-01T02:38:00.163Z,16.73
2018-06-01T02:40:28.564Z,16.66
2018-06-01T02:42:56.951Z,16.66
2018-06-01T02:45:25.347Z,16.68
2018-06-01T02:47:53.727Z,16.62
2018-06-01T02:50:22.132Z,16.67
2018-06-01T02:52:50.504Z,16.61
2018-06-01T02:55:18.904Z,16.61
2018-06-01T02:57:48.111Z,16.65
2018-06-01T03:00:16.721Z,16.75
2018-06-01T03:02:45.104Z,16.79
2018-06-01T03:05:13.504Z,16.81
2018-06-01T03:07:41.884Z,16.95
2018-06-01T03:10:10.293Z,16.85
2018-06-01T03:12:38.674Z,16.91
2018-06-01T03:15:07.072Z,16.79
2018-06-01T03:17:35.452Z,16.89
2018-06-01T03:20:03.856Z,16.83
2018-06-01T03:22:32.248Z,16.83
2018-06-01T03:25:00.644Z,16.84
2018-06-01T03:27:29.018Z,16.86
2018-06-01T03:29:57.412Z,16.78
2018-06-01T03:32:25.795Z,16.80
2018-06-01T03:34:54.200Z,16.77
2018-06-01T03:37:22.580Z,16.75
2018-06-01T03:39:50.971Z,16.85
2018-06-01T03:42:19.356Z,16.86
2018-06-01T03:44:47.748Z,16.81
2018-06-01T03:47:16.127Z,16.77
2018-06-01T03:49:44.527Z,16.90
2018-06-01T03:52:12.912Z,16.87
2018-06-01T03:54:41.312Z,16.83
2018-06-01T03:57:09.755Z,16.86
2018-06-01T03:59:38.235Z,16.99
2018-06-01T04:02:06.615Z,16.98
2018-06-01T04:04:35.012Z,16.97
2018-06-01T04:07:03.380Z,17.09
2018-06-01T04:09:31.784Z,17.13
2018-06-01T04:12:00.168Z,17.24
2018-06-01T04:14:28.547Z,17.26
2018-06-01T04:16:58.088Z,17.30
2018-06-01T04:19:26.824Z,17.36
2018-06-01T04:21:55.192Z,17.44
2018-06-01T04:24:23.575Z,17.63
2018-06-01T04:26:51.976Z,17.49
2018-06-01T04:29:20.364Z,17.53
2018-06-01T04:31:48.771Z,17.65
2018-06-01T04:34:17.156Z,17.60
2018-06-01T04:36:45.568Z,17.64
2018-06-01T04:39:13.948Z,17.61
2018-06-01T04:41:42.361Z,17.72
2018-06-01T04:44:10.746Z,17.79
2018-06-01T04:46:39.144Z,17.77
2018-06-01T04:49:07.524Z,17.67
2018-06-01T04:51:35.924Z,17.79
2018-06-01T04:54:04.296Z,17.88
2018-06-01T04:56:32.802Z,18.09
2018-06-01T04:59:02.072Z,18.31
2018-06-01T05:01:30.816Z,18.37
2018-06-01T05:03:59.284Z,18.47
2018-06-01T05:06:27.676Z,18.59
2018-06-01T05:08:56.051Z,18.39
2018-06-01T05:11:24.451Z,18.35
2018-06-01T05:13:52.840Z,18.73
2018-06-01T05:16:21.236Z,19.02
2018-06-01T05:18:49.604Z,18.83
2018-06-01T05:21:18.011Z,19.01
2018-06-01T05:23:46.396Z,19.35
2018-06-01T05:26:14.784Z,19.63
2018-06-01T05:28:43.179Z,19.64
2018-06-01T05:31:11.568Z,19.42
2018-06-01T05:33:39.952Z,19.48
2018-06-01T05:36:08.416Z,19.70
2018-06-01T05:38:36.788Z,19.46
2018-06-01T05:41:05.183Z,19.40
2018-06-01T05:43:33.557Z,19.22
2018-06-01T05:46:01.952Z,18.91
2018-06-01T05:48:30.330Z,19.46
2018-06-01T05:50:58.729Z,19.59
2018-06-01T05:53:27.103Z,19.48
2018-06-01T05:55:55.484Z,19.52
2018-06-01T05:58:23.888Z,19.79
2018-06-01T06:00:52.269Z,19.61
2018-06-01T06:03:20.667Z,19.39
2018-06-01T06:05:49.160Z,19.43
2018-06-01T06:08:17.555Z,19.55
2018-06-01T06:10:45.956Z,19.55
2018-06-01T06:13:14.784Z,19.68
2018-06-01T06:15:43.112Z,19.93
2018-06-01T06:18:11.523Z,19.81
2018-06-01T06:20:39.896Z,20.08
2018-06-01T06:23:08.304Z,20.33
2018-06-01T06:25:36.698Z,20.48
2018-06-01T06:28:05.093Z,20.93
2018-06-01T06:30:33.471Z,21.07
2018-06-01T06:33:01.868Z,21.38
2018-06-01T06:35:30.247Z,21.39
2018-06-01T06:37:58.635Z,21.49
2018-06-01T06:40:27.036Z,21.51
2018-06-01T06:42:55.443Z,21.55
2018-06-01T06:45:23.819Z,21.75
2018-06-01T06:47:52.219Z,22.19
2018-06-01T06:50:20.587Z,21.67
2018-06-01T06:52:49.001Z,21.21
2018-06-01T06:55:17.383Z,21.11
2018-06-01T06:57:46.353Z,21.13
2018-06-01T07:00:15.239Z,21.03
2018-06-01T07:02:43.778Z,20.71
2018-06-01T07:05:12.696Z,20.80
2018-06-01T07:07:41.320Z,20.56
2018-06-01T07:10:09.708Z,20.49
2018-06-01T07:12:38.284Z,20.49
2018-06-01T07:15:06.868Z,20.62
2018-06-01T07:17:35.528Z,20.91
2018-06-01T07:20:04.219Z,20.86
2018-06-01T07:22:32.764Z,21.14
2018-06-01T07:25:01.211Z,20.75
2018-06-01T07:27:29.616Z,21.40
2018-06-01T07:29:57.995Z,21.30
2018-06-01T07:32:26.401Z,21.63
2018-06-01T07:34:54.786Z,22.04
2018-06-01T07:37:23.164Z,22.12
2018-06-01T07:39:51.564Z,22.10
2018-06-01T07:42:19.935Z,22.43
2018-06-01T07:44:48.348Z,22.55
2018-06-01T07:47:16.735Z,24.92
2018-06-01T07:49:45.131Z,25.40
2018-06-01T07:52:13.516Z,25.82
2018-06-01T07:54:41.916Z,23.84
2018-06-01T07:57:10.288Z,21.84
2018-06-01T07:59:38.935Z,22.22
2018-06-01T08:02:07.691Z,21.26
2018-06-01T08:04:36.317Z,21.22
2018-06-01T08:07:04.884Z,21.73
2018-06-01T08:09:33.388Z,21.36
2018-06-01T08:12:01.859Z,20.78
2018-06-01T08:14:30.584Z,20.43
2018-06-01T08:16:59.399Z,20.62
2018-06-01T08:19:27.806Z,20.43
2018-06-01T08:21:56.188Z,20.42
2018-06-01T08:24:24.589Z,20.10
2018-06-01T08:26:52.987Z,20.26
2018-06-01T08:29:21.386Z,20.48
2018-06-01T08:31:49.766Z,20.13
2018-06-01T08:34:18.164Z,20.16
2018-06-01T08:36:46.535Z,19.76
2018-06-01T08:39:14.937Z,19.63
2018-06-01T08:41:43.325Z,19.65
2018-06-01T08:44:11.714Z,19.77
2018-06-01T08:46:40.152Z,19.68
2018-06-01T08:49:08.487Z,19.68
2018-06-01T08:51:36.860Z,19.88
2018-06-01T08:54:05.233Z,19.78
2018-06-01T08:56:33.631Z,19.80
2018-06-01T08:59:02.085Z,19.92
2018-06-01T09:01:30.440Z,20.14
2018-06-01T09:03:59.273Z,20.29
2018-06-01T09:06:27.684Z,20.39
2018-06-01T09:08:57.005Z,20.55
2018-06-01T09:11:25.419Z,20.59
2018-06-01T09:13:53.896Z,20.92
2018-06-01T09:16:22.303Z,20.86
2018-06-01T09:18:50.847Z,20.85
2018-06-01T09:21:19.363Z,20.83
2018-06-01T09:23:47.744Z,20.84
2018-06-01T09:26:16.204Z,21.09
2018-06-01T09:28:44.679Z,21.00
2018-06-01T09:31:13.095Z,20.93
2018-06-01T09:33:41.485Z,21.30
2018-06-01T09:36:10.115Z,21.49
2018-06-01T09:38:39.824Z,22.07
2018-06-01T09:41:08.229Z,21.61
2018-06-01T09:43:36.608Z,21.01
2018-06-01T09:46:05.191Z,20.86
2018-06-01T09:48:33.572Z,21.26
2018-06-01T09:51:02.156Z,20.98
2018-06-01T09:53:31.044Z,20.90
2018-06-01T09:55:59.593Z,20.64
2018-06-01T09:58:28.399Z,20.74
2018-06-01T10:01:00.309Z,20.85
2018-06-01T10:03:29.483Z,21.12
2018-06-01T10:05:58.164Z,21.83
2018-06-01T10:08:26.645Z,22.41
2018-06-01T10:10:55.053Z,22.73
2018-06-01T10:13:23.434Z,22.67
2018-06-01T10:15:51.845Z,22.41
2018-06-01T10:18:20.227Z,21.90
2018-06-01T10:20:48.647Z,21.99
2018-06-01T10:23:17.027Z,21.61
2018-06-01T10:25:45.464Z,21.75
2018-06-01T10:28:14.018Z,21.92
2018-06-01T10:33:16.128Z,21.20
2018-06-01T10:35:44.520Z,21.47
2018-06-01T10:38:12.920Z,21.53
2018-06-01T10:40:41.566Z,21.44
2018-06-01T10:43:11.115Z,22.88
2018-06-01T10:45:42.740Z,23.25
2018-06-01T10:48:13.910Z,22.24
2018-06-01T10:50:43.844Z,22.47
2018-06-01T10:53:13.559Z,21.79
2018-06-01T10:55:43.052Z,21.15
2018-06-01T10:58:14.533Z,21.78
2018-06-01T11:00:43.375Z,21.62
2018-06-01T11:03:13.216Z,21.87
2018-06-01T11:05:41.592Z,22.25
2018-06-01T11:08:09.985Z,22.88
2018-06-01T11:10:38.363Z,23.58
2018-06-01T11:13:06.768Z,23.82
2018-06-01T11:15:35.152Z,23.01
2018-06-01T11:18:03.555Z,23.60
2018-06-01T11:20:31.931Z,24.05
2018-06-01T11:23:00.335Z,24.33
2018-06-01T11:25:28.716Z,23.11
2018-06-01T11:27:57.108Z,22.39
2018-06-01T11:30:25.530Z,22.29
2018-06-01T11:32:53.916Z,22.63
2018-06-01T11:35:22.292Z,22.85
2018-06-01T11:37:50.708Z,23.11
2018-06-01T11:40:19.096Z,22.76
2018-06-01T11:42:47.710Z,22.70
2018-06-01T11:45:16.174Z,22.33
2018-06-01T11:47:44.822Z,23.21
2018-06-01T11:50:13.454Z,23.31
2018-06-01T11:52:42.000Z,24.02
2018-06-01T11:55:10.384Z,23.76
2018-06-01T11:57:38.779Z,22.99
2018-06-01T12:00:07.164Z,23.34
2018-06-01T12:02:35.759Z,22.56
2018-06-01T12:05:04.139Z,22.98
2018-06-01T12:07:32.543Z,22.76
2018-06-01T12:10:01.192Z,22.85
2018-06-01T12:12:29.584Z,22.63
2018-06-01T12:14:58.044Z,23.08
2018-06-01T12:17:26.644Z,23.04
2018-06-01T12:19:55.033Z,24.09
2018-06-01T12:22:23.652Z,25.61
2018-06-01T12:24:52.104Z,25.31
2018-06-01T12:27:20.504Z,23.83
2018-06-01T12:29:49.047Z,23.79
2018-06-01T12:32:17.536Z,24.29
2018-06-01T12:34:45.920Z,24.47
2018-06-01T12:37:14.324Z,24.85
2018-06-01T12:39:42.704Z,24.81
2018-06-01T12:42:11.104Z,24.11
2018-06-01T12:44:39.493Z,24.02
2018-06-01T12:47:07.888Z,24.07
2018-06-01T12:49:36.273Z,23.48
2018-06-01T12:52:04.673Z,22.63
2018-06-01T12:54:33.059Z,22.53
2018-06-01T12:57:01.456Z,22.24
2018-06-01T12:59:29.840Z,22.38
2018-06-01T13:01:58.252Z,22.91
2018-06-01T13:04:26.633Z,23.50
2018-06-01T13:06:55.044Z,24.38
2018-06-01T13:09:23.436Z,25.65
2018-06-01T13:11:51.834Z,26.05
2018-06-01T13:14:20.217Z,27.03
2018-06-01T13:16:48.613Z,27.83
2018-06-01T13:19:16.999Z,27.73
2018-06-01T13:21:45.393Z,26.20
2018-06-01T13:24:13.788Z,25.84
2018-06-01T13:26:42.170Z,25.47
2018-06-01T13:29:10.572Z,25.58
2018-06-01T13:31:38.957Z,25.10
2018-06-01T13:34:07.355Z,26.10
2018-06-01T13:36:35.740Z,27.78
2018-06-01T13:39:04.140Z,26.11
2018-06-01T13:41:32.537Z,27.72
2018-06-01T13:44:00.932Z,26.58
2018-06-01T13:46:29.320Z,24.61
2018-06-01T13:48:57.712Z,24.11
2018-06-01T13:51:26.091Z,25.47
2018-06-01T13:53:54.491Z,24.65
2018-06-01T13:56:22.875Z,24.52
2018-06-01T13:58:51.276Z,25.23
2018-06-01T14:01:19.660Z,26.80
2018-06-01T14:03:48.055Z,26.60
2018-06-01T14:06:16.728Z,25.77
2018-06-01T14:08:45.263Z,24.98
2018-06-01T14:11:13.644Z,24.87
2018-06-01T14:13:42.048Z,24.83
2018-06-01T14:16:10.428Z,24.67
2018-06-01T14:18:38.838Z,25.80
2018-06-01T14:21:07.214Z,26.44
2018-06-01T14:23:35.612Z,26.46
2018-06-01T14:26:03.996Z,25.17
2018-06-01T14:28:32.388Z,24.50
2018-06-01T14:31:00.776Z,23.65
2018-06-01T14:33:29.172Z,23.42
2018-06-01T14:35:57.552Z,23.56
2018-06-01T14:38:25.955Z,23.26
2018-06-01T14:40:54.340Z,23.05
2018-06-01T14:43:22.739Z,22.92
2018-06-01T14:45:51.124Z,23.03
2018-06-01T14:48:19.526Z,22.97
2018-06-01T14:50:47.907Z,23.62
2018-06-01T14:53:16.305Z,23.45
2018-06-01T14:55:44.687Z,23.48
2018-06-01T14:58:13.105Z,22.88
2018-06-01T15:00:41.493Z,23.46
2018-06-01T15:03:09.896Z,24.11
2018-06-01T15:05:38.918Z,23.67
2018-06-01T15:08:07.707Z,23.41
2018-06-01T15:10:36.366Z,23.42
2018-06-01T15:13:05.280Z,23.29
2018-06-01T15:15:33.660Z,23.65
2018-06-01T15:18:02.055Z,23.70
2018-06-01T15:20:30.426Z,23.53
2018-06-01T15:22:58.828Z,23.65
2018-06-01T15:25:27.202Z,23.49
2018-06-01T15:27:55.645Z,23.02
2018-06-01T15:30:24.056Z,22.89
2018-06-01T15:32:52.443Z,22.96
2018-06-01T15:35:20.832Z,23.00
2018-06-01T15:37:49.236Z,22.89
2018-06-01T15:40:17.618Z,22.74
2018-06-01T15:42:46.024Z,23.26
2018-06-01T15:45:14.420Z,23.60
2018-06-01T15:47:42.815Z,23.56
2018-06-01T15:50:11.200Z,23.53
2018-06-01T15:52:39.604Z,23.71
2018-06-01T15:55:07.996Z,23.13
2018-06-01T15:57:36.397Z,23.15
2018-06-01T16:00:04.771Z,23.08
2018-06-01T16:02:33.177Z,23.24
2018-06-01T16:05:01.568Z,23.00
2018-06-01T16:07:29.977Z,22.92
2018-06-01T16:09:59.436Z,22.84
2018-06-01T16:12:27.853Z,22.28
2018-06-01T16:14:56.308Z,22.31
2018-06-01T16:17:24.792Z,22.31
2018-06-01T16:19:53.265Z,22.44
2018-06-01T16:22:21.645Z,22.14
2018-06-01T16:24:50.319Z,22.24
2018-06-01T16:27:18.980Z,22.09
2018-06-01T16:29:47.724Z,22.04
2018-06-01T16:32:16.101Z,22.08
2018-06-01T16:34:44.503Z,22.18
2018-06-01T16:37:13.105Z,21.85
2018-06-01T16:39:41.959Z,22.23
2018-06-01T16:42:10.341Z,22.28
2018-06-01T16:44:38.980Z,21.97
2018-06-01T16:47:07.583Z,21.87
2018-06-01T16:49:36.075Z,22.21
2018-06-01T16:52:04.457Z,22.01
2018-06-01T16:54:32.860Z,21.63
2018-06-01T16:57:01.256Z,21.35
2018-06-01T16:59:29.671Z,21.20
2018-06-01T17:01:58.056Z,21.22
2018-06-01T17:04:26.443Z,21.60
2018-06-01T17:06:54.827Z,21.33
2018-06-01T17:09:23.232Z,21.46
2018-06-01T17:11:52.487Z,21.71
2018-06-01T17:14:20.891Z,21.74
2018-06-01T17:16:49.363Z,21.45
2018-06-01T17:19:17.775Z,21.51
2018-06-01T17:21:46.621Z,21.36
2018-06-01T17:24:15.327Z,21.34
2018-06-01T17:26:43.808Z,21.46
2018-06-01T17:29:12.204Z,21.47
2018-06-01T17:31:40.588Z,21.20
2018-06-01T17:34:09.007Z,21.08
2018-06-01T17:36:37.395Z,21.15
2018-06-01T17:39:05.807Z,20.91
2018-06-01T17:41:34.184Z,20.77
2018-06-01T17:44:02.596Z,20.88
2018-06-01T17:46:30.992Z,20.57
2018-06-01T17:48:59.396Z,20.27
2018-06-01T17:51:27.789Z,20.31
2018-06-01T17:53:56.185Z,20.31
2018-06-01T17:56:24.555Z,20.58
2018-06-01T17:58:52.960Z,20.66
2018-06-01T18:01:21.344Z,20.47
2018-06-01T18:03:49.746Z,20.32
2018-06-01T18:06:18.125Z,20.50
2018-06-01T18:08:46.532Z,20.76
2018-06-01T18:11:14.908Z,20.78
2018-06-01T18:13:43.311Z,20.75
2018-06-01T18:16:12.631Z,20.62
2018-06-01T18:18:41.424Z,20.39
2018-06-01T18:21:09.897Z,20.24
2018-06-01T18:23:38.291Z,19.88
2018-06-01T18:26:07.050Z,19.88
2018-06-01T18:28:35.456Z,19.74
2018-06-01T18:31:03.845Z,19.78
2018-06-01T18:33:33.311Z,19.78
2018-06-01T18:36:02.137Z,19.70
2018-06-01T18:38:30.581Z,19.60
2018-06-01T18:40:59.401Z,19.66
2018-06-01T18:43:27.917Z,19.64
2018-06-01T18:45:56.291Z,19.55
2018-06-01T18:48:24.717Z,19.43
2018-06-01T18:50:53.110Z,19.36
2018-06-01T18:53:22.635Z,19.22
2018-06-01T18:55:51.084Z,19.23
2018-06-01T18:58:19.483Z,19.13
2018-06-01T19:00:47.875Z,19.17
2018-06-01T19:03:16.280Z,19.13
2018-06-01T19:05:44.673Z,19.07
2018-06-01T19:08:13.562Z,19.03
2018-06-01T19:10:44.986Z,19.00
2018-06-01T19:13:13.435Z,18.91
2018-06-01T19:15:42.276Z,18.98
2018-06-01T19:18:12.152Z,18.95
2018-06-01T19:20:40.868Z,18.92
2018-06-01T19:23:09.630Z,18.88
2018-06-01T19:25:38.619Z,18.66
2018-06-01T19:28:07.395Z,18.63
2018-06-01T19:30:36.147Z,18.77
2018-06-01T19:33:04.724Z,18.68
2018-06-01T19:35:33.224Z,18.64
2018-06-01T19:38:05.921Z,18.69
2018-06-01T19:40:34.926Z,18.75
2018-06-01T19:43:03.786Z,18.68
2018-06-01T19:45:32.811Z,18.72
2018-06-01T19:48:01.581Z,18.74
2018-06-01T19:50:30.521Z,18.68
2018-06-01T19:52:59.446Z,18.68
2018-06-01T19:55:28.434Z,18.60
2018-06-01T19:57:57.100Z,18.64
2018-06-01T20:00:25.990Z,18.65
2018-06-01T20:02:54.465Z,18.68
2018-06-01T20:05:22.864Z,18.66
2018-06-01T20:07:51.248Z,18.59
2018-06-01T20:10:20.623Z,18.60
2018-06-01T20:12:49.003Z,18.61
2018-06-01T20:15:17.400Z,18.38
2018-06-01T20:17:45.783Z,18.52
2018-06-01T20:20:14.187Z,18.46
2018-06-01T20:22:42.570Z,18.50
2018-06-01T20:25:11.948Z,18.52
2018-06-01T20:27:40.323Z,18.52
2018-06-01T20:30:08.731Z,18.47
2018-06-01T20:32:37.115Z,18.45
2018-06-01T20:35:05.528Z,18.46
2018-06-01T20:37:33.908Z,18.54
2018-06-01T20:40:02.312Z,18.43
2018-06-01T20:42:30.718Z,18.50
2018-06-01T20:44:59.124Z,18.52
2018-06-01T20:47:27.508Z,18.53
2018-06-01T20:49:55.911Z,18.52
2018-06-01T20:52:24.290Z,18.47
2018-06-01T20:54:52.690Z,18.42
2018-06-01T20:57:21.471Z,18.38
2018-06-01T20:59:49.936Z,18.45
2018-06-01T21:02:18.711Z,18.47
2018-06-01T21:04:47.212Z,18.42
2018-06-01T21:07:15.851Z,18.40
2018-06-01T21:09:44.723Z,18.43
2018-06-01T21:12:14.821Z,18.40
2018-06-01T21:14:46.326Z,18.38
2018-06-01T21:17:15.183Z,18.36
2018-06-01T21:19:44.069Z,18.35
2018-06-01T21:22:12.724Z,18.38
2018-06-01T21:24:41.279Z,18.27
2018-06-01T21:27:10.225Z,18.23
2018-06-01T21:29:39.020Z,18.09
2018-06-01T21:32:07.752Z,18.02
2018-06-01T21:34:36.512Z,17.92
2018-06-01T21:37:05.430Z,17.83
2018-06-01T21:39:33.920Z,17.74
2018-06-01T21:42:02.732Z,17.70
2018-06-01T21:44:31.607Z,17.69
2018-06-01T21:47:00.020Z,17.64
2018-06-01T21:49:28.523Z,17.60
2018-06-01T21:51:57.041Z,17.61
2018-06-01T21:54:26.019Z,17.62
2018-06-01T21:56:54.620Z,17.55
2018-06-01T21:59:23.011Z,17.49
2018-06-01T22:01:51.804Z,17.44
2018-06-01T22:04:20.758Z,17.43
2018-06-01T22:06:49.153Z,17.31
2018-06-01T22:09:17.723Z,17.34
2018-06-01T22:11:46.252Z,17.42
2018-06-01T22:14:15.626Z,17.46
2018-06-01T22:16:46.572Z,17.46
2018-06-01T22:19:15.095Z,17.45
2018-06-01T22:21:43.619Z,17.47
2018-06-01T22:24:12.024Z,17.45
2018-06-01T22:26:40.520Z,17.54
2018-06-01T22:29:09.260Z,17.57
2018-06-01T22:31:37.635Z,17.58
2018-06-01T22:34:06.036Z,17.61
2018-06-01T22:36:34.420Z,17.61
2018-06-01T22:39:02.800Z,17.58
2018-06-01T22:41:31.196Z,17.54
2018-06-01T22:43:59.596Z,17.52
2018-06-01T22:46:27.975Z,17.34
2018-06-01T22:48:56.356Z,17.15
2018-06-01T22:51:24.752Z,17.04
2018-06-01T22:53:53.120Z,16.90
2018-06-01T22:56:21.516Z,16.76
2018-06-01T22:58:49.900Z,16.68
2018-06-01T23:01:18.291Z,16.57
2018-06-01T23:03:46.671Z,16.54
2018-06-01T23:06:15.076Z,16.49
2018-06-01T23:08:43.456Z,16.50
2018-06-01T23:11:11.868Z,16.47
2018-06-01T23:13:40.644Z,16.47
2018-06-01T23:16:09.052Z,16.44
2018-06-01T23:18:38.106Z,16.42
2018-06-01T23:21:06.931Z,16.41
2018-06-01T23:23:35.837Z,16.44
2018-06-01T23:26:04.410Z,16.38
2018-06-01T23:28:32.788Z,16.42
2018-06-01T23:31:01.422Z,16.48
2018-06-01T23:33:29.972Z,16.50
2018-06-01T23:35:59.796Z,16.53
2018-06-01T23:38:29.608Z,16.58
2018-06-01T23:40:58.300Z,16.59
2018-06-01T23:43:27.011Z,16.58
2018-06-01T23:45:55.930Z,16.60
2018-06-01T23:48:24.645Z,16.64
2018-06-01T23:50:53.328Z,16.62
2018-06-01T23:53:22.128Z,16.50
2018-06-01T23:55:50.881Z,16.47
2018-06-01T23:58:19.763Z,16.36
